Beltdiep — PBYF — position and weather

sailwx.info

Track history (hours):
 
Tides and Currents Weather Stations Pressure Air Temp Water Temp Dewpoint Dewpoint Depression Visibility Wind Speed Wind Dir Waves Ship Positions

Beltdiep

Last reported at 2016-May-27 18:33 UTC. Time now 2016-May-28 10:02 UTC.
Position N 43°39' W 005°11'.

Length 107 m; draft 4.2 m.

Type: Cargo ship. MMSI: 246671000.

Date/timePositionNaut miles runAvg speedWind from/ knotsBaromVisibWave heightAir tempDewpointWater temp
2016-May-27 18:33N 43°39' W 005°11'1110.6
2016-May-27 17:33N 43°40' W 005°26'1110.7
2016-May-27 16:34N 43°42' W 005°40'10 9.9
2016-May-27 15:30N 43°41' W 005°55'  
2016-May-24 06:09N 43°36' W 005°57'5 7.6
2016-May-24 05:32N 43°38' W 006°02'10 9.3
2016-May-24 04:30N 43°41' W 006°15'320 6.8
2016-May-22 05:33N 39°05' W 009°51'9 8.9
2016-May-22 04:33N 38°56' W 009°51'19 9.3
2016-May-22 02:29N 38°37' W 009°49'19 9.2
2016-May-22 00:24N 38°28' W 009°27'8 9.8
2016-May-21 23:32N 38°23' W 009°18'9 9.6
2016-May-21 22:33N 38°21' W 009°07'1010.0
2016-May-21 21:33N 38°28' W 008°57'6 4.0
2016-May-21 20:10N 38°30' W 008°51'0 0.0
2016-May-21 19:33N 38°30' W 008°51'0 0.0
2016-May-21 14:24N 38°30' W 008°51'0 0.0
2016-May-21 12:33N 38°30' W 008°51'0 0.0
2016-May-21 11:20N 38°30' W 008°51'0 0.0
2016-May-21 10:29N 38°30' W 008°51'0 0.0
2016-May-21 09:31N 38°30' W 008°51'0 0.0
2016-May-21 08:28N 38°30' W 008°51'0 0.0
2016-May-21 07:30N 38°30' W 008°51'0 0.0
2016-May-21 06:15N 38°30' W 008°51'0 0.0
2016-May-21 05:33N 38°30' W 008°51'0 0.0
2016-May-21 04:32N 38°30' W 008°51'0 0.0
2016-May-21 03:32N 38°30' W 008°51'0 0.0
2016-May-21 02:31N 38°30' W 008°51'0 0.0
2016-May-21 01:31N 38°30' W 008°51'0 0.0
2016-May-21 00:33N 38°30' W 008°51'0 0.0
2016-May-20 23:33N 38°30' W 008°51'0 0.0
2016-May-20 22:32N 38°30' W 008°51'0 0.0
2016-May-20 21:32N 38°30' W 008°51'0 0.0
2016-May-20 20:29N 38°30' W 008°51'0 0.0
2016-May-20 19:31N 38°30' W 008°51'5 4.8
2016-May-20 18:33N 38°29' W 008°57'5 4.9
2016-May-20 17:33N 38°24' W 008°59'9 9.4
2016-May-20 16:33N 38°15' W 009°02'9 8.5
2016-May-20 15:33N 38°07' W 009°04'8 8.4
2016-May-20 14:33N 37°58' W 009°06'8 8.2
2016-May-20 13:33N 37°50' W 009°08'8 8.3
2016-May-20 12:33N 37°42' W 009°10'8 8.2
2016-May-20 11:33N 37°34' W 009°13'19 9.2
2016-May-20 09:29N 37°16' W 009°18'11 9.4
2016-May-20 08:19N 37°05' W 009°20'17 8.6
2016-May-20 06:22N 36°49' W 009°15'15 8.0
2016-May-20 04:33N 36°43' W 008°58'9 8.7
2016-May-20 03:33N 36°43' W 008°47'9 9.0
2016-May-20 02:33N 36°42' W 008°36'9 9.4
2016-May-20 01:33N 36°41' W 008°24'10 9.6
2016-May-20 00:33N 36°41' W 008°12'10 9.5
2016-May-19 23:33N 36°41' W 008°01'9 9.4
2016-May-19 22:33N 36°41' W 007°49'3 0.4
2016-May-19 13:21N 36°45' W 007°49'1 0.8
2016-May-19 12:33N 36°45' W 007°49'1 1.0
2016-May-19 11:33N 36°44' W 007°51'1 0.9
2016-May-19 10:33N 36°44' W 007°52'1 0.8
2016-May-19 09:33N 36°44' W 007°53'1 0.7
2016-May-19 08:33N 36°44' W 007°54'1 0.8
2016-May-19 07:33N 36°44' W 007°54'0 0.4
2016-May-19 06:33N 36°44' W 007°55'10 9.7
2016-May-19 05:33N 36°39' W 007°44'11 9.8
2016-May-19 04:28N 36°34' W 007°33'19 9.6
2016-May-19 02:29N 36°24' W 007°13'84 9.4
2016-May-18 17:32N 35°58' W 005°34'8 8.3
2016-May-18 16:33N 35°59' W 005°24'7 6.5
2016-May-18 15:33N 35°54' W 005°19'0 0.1
2016-May-18 14:33N 35°54' W 005°19'0 0.0
2016-May-18 13:32N 35°54' W 005°19'0 0.0
2016-May-18 12:32N 35°54' W 005°19'0 0.0
2016-May-18 11:31N 35°54' W 005°19'1 1.1
2016-May-18 10:33N 35°55' W 005°18'6 6.0
2016-May-18 09:33N 35°58' W 005°12'  
Track history (hours):
 
Tides and Currents Weather Stations Pressure Air Temp Water Temp Dewpoint Dewpoint Depression Visibility Wind Speed Wind Dir Waves Ship Positions

Beltdiep

Last reported at 2016-May-27 18:33 UTC. Time now 2016-May-28 10:02 UTC.
Position N 43°39' W 005°11'.

Length 107 m; draft 4.2 m.

Type: Cargo ship. MMSI: 246671000.

Date/timePositionNaut miles runAvg speedWind from/ knotsBaromVisibWave heightAir tempDewpointWater temp
2016-May-27 18:33N 43°39' W 005°11'1110.6
2016-May-27 17:33N 43°40' W 005°26'1110.7
2016-May-27 16:34N 43°42' W 005°40'10 9.9
2016-May-27 15:30N 43°41' W 005°55'  
2016-May-24 06:09N 43°36' W 005°57'5 7.6
2016-May-24 05:32N 43°38' W 006°02'10 9.3
2016-May-24 04:30N 43°41' W 006°15'320 6.8
2016-May-22 05:33N 39°05' W 009°51'9 8.9
2016-May-22 04:33N 38°56' W 009°51'19 9.3
2016-May-22 02:29N 38°37' W 009°49'19 9.2
2016-May-22 00:24N 38°28' W 009°27'8 9.8
2016-May-21 23:32N 38°23' W 009°18'9 9.6
2016-May-21 22:33N 38°21' W 009°07'1010.0
2016-May-21 21:33N 38°28' W 008°57'6 4.0
2016-May-21 20:10N 38°30' W 008°51'0 0.0
2016-May-21 19:33N 38°30' W 008°51'0 0.0
2016-May-21 14:24N 38°30' W 008°51'0 0.0
2016-May-21 12:33N 38°30' W 008°51'0 0.0
2016-May-21 11:20N 38°30' W 008°51'0 0.0
2016-May-21 10:29N 38°30' W 008°51'0 0.0
2016-May-21 09:31N 38°30' W 008°51'0 0.0
2016-May-21 08:28N 38°30' W 008°51'0 0.0
2016-May-21 07:30N 38°30' W 008°51'0 0.0
2016-May-21 06:15N 38°30' W 008°51'0 0.0
2016-May-21 05:33N 38°30' W 008°51'0 0.0
2016-May-21 04:32N 38°30' W 008°51'0 0.0
2016-May-21 03:32N 38°30' W 008°51'0 0.0
2016-May-21 02:31N 38°30' W 008°51'0 0.0
2016-May-21 01:31N 38°30' W 008°51'0 0.0
2016-May-21 00:33N 38°30' W 008°51'0 0.0
2016-May-20 23:33N 38°30' W 008°51'0 0.0
2016-May-20 22:32N 38°30' W 008°51'0 0.0
2016-May-20 21:32N 38°30' W 008°51'0 0.0
2016-May-20 20:29N 38°30' W 008°51'0 0.0
2016-May-20 19:31N 38°30' W 008°51'5 4.8
2016-May-20 18:33N 38°29' W 008°57'5 4.9
2016-May-20 17:33N 38°24' W 008°59'9 9.4
2016-May-20 16:33N 38°15' W 009°02'9 8.5
2016-May-20 15:33N 38°07' W 009°04'8 8.4
2016-May-20 14:33N 37°58' W 009°06'8 8.2
2016-May-20 13:33N 37°50' W 009°08'8 8.3
2016-May-20 12:33N 37°42' W 009°10'8 8.2
2016-May-20 11:33N 37°34' W 009°13'19 9.2
2016-May-20 09:29N 37°16' W 009°18'11 9.4
2016-May-20 08:19N 37°05' W 009°20'17 8.6
2016-May-20 06:22N 36°49' W 009°15'15 8.0
2016-May-20 04:33N 36°43' W 008°58'9 8.7
2016-May-20 03:33N 36°43' W 008°47'9 9.0
2016-May-20 02:33N 36°42' W 008°36'9 9.4
2016-May-20 01:33N 36°41' W 008°24'10 9.6
2016-May-20 00:33N 36°41' W 008°12'10 9.5
2016-May-19 23:33N 36°41' W 008°01'9 9.4
2016-May-19 22:33N 36°41' W 007°49'3 0.4
2016-May-19 13:21N 36°45' W 007°49'1 0.8
2016-May-19 12:33N 36°45' W 007°49'1 1.0
2016-May-19 11:33N 36°44' W 007°51'1 0.9
2016-May-19 10:33N 36°44' W 007°52'1 0.8
2016-May-19 09:33N 36°44' W 007°53'1 0.7
2016-May-19 08:33N 36°44' W 007°54'1 0.8
2016-May-19 07:33N 36°44' W 007°54'0 0.4
2016-May-19 06:33N 36°44' W 007°55'10 9.7
2016-May-19 05:33N 36°39' W 007°44'11 9.8
2016-May-19 04:28N 36°34' W 007°33'19 9.6
2016-May-19 02:29N 36°24' W 007°13'84 9.4
2016-May-18 17:32N 35°58' W 005°34'8 8.3
2016-May-18 16:33N 35°59' W 005°24'7 6.5
2016-May-18 15:33N 35°54' W 005°19'0 0.1
2016-May-18 14:33N 35°54' W 005°19'0 0.0
2016-May-18 13:32N 35°54' W 005°19'0 0.0
2016-May-18 12:32N 35°54' W 005°19'0 0.0
2016-May-18 11:31N 35°54' W 005°19'1 1.1
2016-May-18 10:33N 35°55' W 005°18'6 6.0
2016-May-18 09:33N 35°58' W 005°12'  

Dump ship's entire track history